Terminal Aerodrome Forecast
Issued by NWS

Home | Current Version | Previous Version | Graphics & Text | Print | Product List | Glossary On
Versions: 1 2 3 4 5 6 7 8 9 10 11 12 13 14 15 16 17 18 19 20 21 22 23 24 25 26 27 28 29 30
793
FTUS43 KBIS 180301 AAB
TAFMOT
TAF AMD
KMOT 180301Z 1803/1824 07007KT P6SM FEW080 FEW250
     FM180400 07005KT P6SM VCTS FEW070CB SCT200
      TEMPO 1805/1807 5SM -TSRA BKN060CB
     FM180700 31004KT P6SM FEW060 FEW150
     FM181700 32008KT P6SM FEW070=

USA.gov is the U.S. government's official web portal to all federal, state and local government web resources and services.